createdAt,value
2022-12-18T00:02:17.849Z,51.00
2022-12-18T00:04:44.617Z,50.90
2022-12-18T00:07:11.339Z,50.90
2022-12-18T00:09:40.636Z,50.80
2022-12-18T00:14:42.549Z,50.90
2022-12-18T00:17:09.312Z,50.90
2022-12-18T00:19:36.085Z,50.90
2022-12-18T00:22:02.813Z,50.90
2022-12-18T00:24:29.611Z,50.90
2022-12-18T00:26:57.815Z,51.60
2022-12-18T00:29:24.601Z,51.00
2022-12-18T00:31:51.381Z,50.90
2022-12-18T00:34:18.191Z,50.90
2022-12-18T00:36:45.024Z,50.90
2022-12-18T00:39:12.209Z,51.00
2022-12-18T00:41:39.160Z,50.80
2022-12-18T00:44:09.922Z,50.80
2022-12-18T00:46:37.011Z,50.90
2022-12-18T00:49:03.914Z,50.80
2022-12-18T00:51:30.724Z,50.80
2022-12-18T00:53:57.549Z,50.90
2022-12-18T00:56:24.942Z,50.80
2022-12-18T00:58:51.870Z,50.80
2022-12-18T01:01:20.385Z,50.80
2022-12-18T01:03:47.444Z,50.80
2022-12-18T01:06:15.916Z,50.80
2022-12-18T01:08:43.161Z,50.80
2022-12-18T01:11:11.987Z,50.80
2022-12-18T01:13:39.521Z,50.80
2022-12-18T01:16:07.128Z,51.10
2022-12-18T01:18:35.430Z,50.80
2022-12-18T01:21:07.336Z,50.80
2022-12-18T01:23:34.144Z,50.70
2022-12-18T01:26:16.307Z,50.70
2022-12-18T01:28:43.994Z,50.70
2022-12-18T01:31:12.828Z,50.80
2022-12-18T01:33:41.468Z,50.70
2022-12-18T01:36:09.126Z,50.70
2022-12-18T01:38:35.926Z,50.70
2022-12-18T01:41:03.110Z,50.70
2022-12-18T01:43:46.375Z,50.70
2022-12-18T01:46:13.980Z,50.70
2022-12-18T01:48:46.217Z,50.80
2022-12-18T01:51:13.403Z,50.70
2022-12-18T01:53:42.791Z,50.80
2022-12-18T01:56:12.974Z,50.70
2022-12-18T01:58:46.125Z,50.80
2022-12-18T02:01:13.208Z,50.80
2022-12-18T02:03:43.338Z,50.70
2022-12-18T02:06:15.884Z,50.70
2022-12-18T02:08:51.097Z,50.70
2022-12-18T02:11:24.865Z,50.80
2022-12-18T02:14:07.947Z,50.70
2022-12-18T02:16:41.181Z,50.70
2022-12-18T02:19:24.846Z,50.70
2022-12-18T02:21:57.467Z,50.70
2022-12-18T02:24:31.677Z,50.70
2022-12-18T02:27:03.863Z,50.70
2022-12-18T02:29:35.080Z,50.70
2022-12-18T02:32:06.256Z,50.80
2022-12-18T02:34:37.739Z,50.60
2022-12-18T02:37:07.639Z,50.70
2022-12-18T02:39:35.429Z,50.60
2022-12-18T02:42:04.123Z,50.60
2022-12-18T02:44:30.931Z,50.70
2022-12-18T02:46:57.757Z,50.70
2022-12-18T02:49:35.625Z,50.60
2022-12-18T02:52:08.432Z,50.60
2022-12-18T02:54:51.387Z,50.60
2022-12-18T02:57:25.006Z,50.50
2022-12-18T03:00:00.372Z,50.60
2022-12-18T03:02:33.409Z,50.60
2022-12-18T03:05:06.158Z,50.60
2022-12-18T03:07:38.249Z,50.60
2022-12-18T03:10:08.144Z,50.60
2022-12-18T03:12:41.118Z,50.60
2022-12-18T03:15:17.276Z,50.60
2022-12-18T03:17:49.706Z,50.60
2022-12-18T03:20:20.520Z,50.60
2022-12-18T03:22:51.185Z,50.60
2022-12-18T03:25:19.146Z,50.60
2022-12-18T03:27:49.889Z,50.60
2022-12-18T03:30:18.053Z,50.60
2022-12-18T03:32:49.781Z,50.60
2022-12-18T03:35:22.504Z,50.60
2022-12-18T03:37:49.490Z,50.60
2022-12-18T03:40:16.526Z,50.60
2022-12-18T03:42:50.825Z,50.60
2022-12-18T03:45:24.951Z,50.60
2022-12-18T03:48:00.555Z,50.60
2022-12-18T03:50:36.514Z,50.50
2022-12-18T03:53:11.257Z,50.50
2022-12-18T03:55:39.637Z,50.50
2022-12-18T03:58:09.191Z,50.50
2022-12-18T04:00:36.507Z,50.50
2022-12-18T04:03:05.657Z,50.50
2022-12-18T04:05:34.906Z,50.60
2022-12-18T04:08:02.929Z,50.50
2022-12-18T04:10:30.309Z,50.50
2022-12-18T04:12:57.264Z,50.40
2022-12-18T04:15:25.612Z,50.50
2022-12-18T04:17:52.485Z,50.40
2022-12-18T04:20:19.377Z,50.50
2022-12-18T04:22:46.512Z,50.40
2022-12-18T04:25:13.849Z,50.50
2022-12-18T04:27:40.563Z,50.50
2022-12-18T04:30:08.243Z,50.40
2022-12-18T04:32:36.533Z,50.40
2022-12-18T04:35:04.018Z,50.70
2022-12-18T04:37:31.122Z,50.50
2022-12-18T04:39:57.931Z,50.50
2022-12-18T04:42:24.690Z,50.40
2022-12-18T04:44:51.527Z,50.40
2022-12-18T04:47:18.249Z,50.40
2022-12-18T04:49:46.313Z,50.40
2022-12-18T04:52:13.151Z,50.40
2022-12-18T04:54:39.937Z,50.50
2022-12-18T04:57:06.650Z,50.40
2022-12-18T04:59:33.425Z,50.40
2022-12-18T05:02:00.340Z,50.40
2022-12-18T05:04:27.290Z,50.40
2022-12-18T05:06:55.464Z,50.40
2022-12-18T05:09:22.257Z,50.40
2022-12-18T05:11:49.063Z,50.40
2022-12-18T05:14:15.899Z,50.40
2022-12-18T05:16:42.684Z,50.30
2022-12-18T05:19:09.719Z,50.40
2022-12-18T05:21:36.515Z,50.40
2022-12-18T05:24:05.318Z,50.40
2022-12-18T05:26:32.517Z,50.40
2022-12-18T05:28:59.280Z,50.40
2022-12-18T05:31:26.156Z,50.30
2022-12-18T05:33:52.970Z,50.30
2022-12-18T05:36:19.721Z,50.30
2022-12-18T05:38:46.592Z,50.30
2022-12-18T05:41:14.743Z,50.30
2022-12-18T05:43:42.927Z,50.30
2022-12-18T05:46:13.396Z,50.30
2022-12-18T05:48:40.358Z,50.40
2022-12-18T05:51:09.253Z,50.30
2022-12-18T05:53:37.549Z,50.40
2022-12-18T05:56:07.195Z,50.30
2022-12-18T05:58:35.366Z,50.30
2022-12-18T06:01:08.953Z,50.30
2022-12-18T06:03:35.828Z,50.30
2022-12-18T06:06:02.753Z,50.20
2022-12-18T06:08:29.788Z,50.30
2022-12-18T06:10:58.779Z,50.20
2022-12-18T06:13:25.626Z,50.30
2022-12-18T06:15:53.686Z,50.30
2022-12-18T06:18:20.455Z,50.30
2022-12-18T06:20:55.593Z,50.30
2022-12-18T06:23:22.472Z,50.30
2022-12-18T06:25:49.269Z,50.30
2022-12-18T06:28:16.025Z,50.40
2022-12-18T06:30:44.481Z,50.30
2022-12-18T06:33:12.644Z,50.30
2022-12-18T06:35:39.709Z,50.40
2022-12-18T06:38:06.650Z,50.40
2022-12-18T06:40:33.532Z,50.40
2022-12-18T06:43:00.269Z,50.30
2022-12-18T06:45:27.059Z,50.20
2022-12-18T06:47:54.928Z,50.20
2022-12-18T06:50:23.068Z,50.20
2022-12-18T06:52:49.848Z,50.20
2022-12-18T06:55:16.728Z,50.30
2022-12-18T06:57:43.471Z,50.30
2022-12-18T07:00:11.045Z,50.30
2022-12-18T07:02:37.958Z,50.20
2022-12-18T07:05:10.470Z,50.30
2022-12-18T07:07:39.106Z,50.40
2022-12-18T07:10:06.447Z,50.30
2022-12-18T07:12:33.280Z,50.20
2022-12-18T07:15:00.018Z,50.20
2022-12-18T07:17:26.851Z,50.20
2022-12-18T07:19:53.630Z,50.10
2022-12-18T07:22:20.465Z,50.10
2022-12-18T07:24:49.055Z,50.10
2022-12-18T07:27:15.790Z,50.20
2022-12-18T07:29:42.593Z,50.10
2022-12-18T07:32:09.358Z,50.10
2022-12-18T07:34:36.226Z,50.00
2022-12-18T07:37:03.879Z,50.00
2022-12-18T07:39:30.581Z,50.00
2022-12-18T07:41:58.680Z,50.00
2022-12-18T07:44:25.421Z,50.00
2022-12-18T07:46:52.150Z,50.00
2022-12-18T07:49:18.880Z,50.00
2022-12-18T07:51:45.585Z,49.90
2022-12-18T07:54:12.409Z,49.90
2022-12-18T07:56:39.155Z,50.00
2022-12-18T07:59:07.287Z,50.00
2022-12-18T08:01:34.921Z,50.00
2022-12-18T08:04:01.755Z,49.90
2022-12-18T08:06:28.516Z,49.90
2022-12-18T08:08:56.436Z,49.90
2022-12-18T08:11:24.365Z,49.90
2022-12-18T08:13:51.716Z,49.90
2022-12-18T08:16:20.718Z,49.90
2022-12-18T08:18:48.207Z,49.90
2022-12-18T08:21:18.330Z,49.90
2022-12-18T08:23:45.517Z,49.90
2022-12-18T08:26:13.272Z,49.90
2022-12-18T08:28:40.524Z,49.90
2022-12-18T08:31:07.630Z,50.00
2022-12-18T08:33:36.781Z,50.00
2022-12-18T08:36:05.790Z,50.00
2022-12-18T08:38:33.127Z,50.00
2022-12-18T08:41:00.383Z,50.00
2022-12-18T08:43:27.238Z,50.10
2022-12-18T08:45:54.409Z,50.00
2022-12-18T08:48:22.417Z,50.00
2022-12-18T08:50:56.859Z,50.10
2022-12-18T08:53:23.667Z,50.10
2022-12-18T08:55:50.623Z,50.20
2022-12-18T08:58:17.408Z,50.10
2022-12-18T09:00:44.142Z,50.10
2022-12-18T09:03:13.273Z,50.00
2022-12-18T09:05:40.046Z,50.20
2022-12-18T09:08:08.518Z,50.10
2022-12-18T09:10:40.141Z,50.10
2022-12-18T09:13:10.649Z,50.10
2022-12-18T09:15:41.900Z,50.20
2022-12-18T09:18:08.695Z,50.20
2022-12-18T09:20:35.990Z,50.20
2022-12-18T09:23:02.704Z,50.20
2022-12-18T09:25:31.664Z,50.20
2022-12-18T09:27:58.392Z,50.20
2022-12-18T09:30:25.109Z,50.30
2022-12-18T09:32:51.851Z,50.20
2022-12-18T09:35:18.554Z,50.30
2022-12-18T09:37:45.294Z,50.30
2022-12-18T09:40:15.436Z,50.20
2022-12-18T09:42:50.091Z,50.20
2022-12-18T09:45:18.267Z,50.30
2022-12-18T09:47:47.903Z,50.30
2022-12-18T09:50:24.443Z,50.30
2022-12-18T09:52:56.808Z,50.30
2022-12-18T09:55:35.159Z,50.40
2022-12-18T09:58:12.414Z,50.40
2022-12-18T10:00:39.371Z,50.40
2022-12-18T10:03:11.488Z,50.50
2022-12-18T10:05:44.226Z,50.80
2022-12-18T10:08:18.222Z,50.60
2022-12-18T10:10:49.467Z,50.70
2022-12-18T10:13:25.819Z,50.80
2022-12-18T10:16:00.813Z,50.90
2022-12-18T10:18:41.209Z,51.00
2022-12-18T10:21:14.422Z,51.00
2022-12-18T10:23:51.085Z,51.10
2022-12-18T10:26:18.444Z,51.10
2022-12-18T10:28:47.056Z,51.20
2022-12-18T10:31:17.200Z,51.30
2022-12-18T10:33:44.580Z,51.60
2022-12-18T10:36:11.743Z,51.60
2022-12-18T10:38:39.269Z,51.60
2022-12-18T10:41:07.999Z,52.10
2022-12-18T10:43:36.427Z,51.50
2022-12-18T10:46:15.210Z,51.50
2022-12-18T10:48:51.026Z,51.40
2022-12-18T10:51:23.271Z,51.40
2022-12-18T10:53:55.411Z,51.30
2022-12-18T10:56:22.977Z,51.30
2022-12-18T10:58:58.197Z,51.40
2022-12-18T11:01:26.389Z,51.50
2022-12-18T11:04:02.895Z,51.50
2022-12-18T11:06:30.563Z,52.30
2022-12-18T11:09:05.399Z,51.60
2022-12-18T11:11:34.734Z,51.80
2022-12-18T11:14:04.990Z,52.00
2022-12-18T11:16:38.172Z,52.10
2022-12-18T11:19:21.020Z,52.10
2022-12-18T11:21:48.062Z,52.20
2022-12-18T11:24:23.238Z,52.40
2022-12-18T11:26:53.747Z,52.50
2022-12-18T11:29:29.363Z,52.50
2022-12-18T11:32:28.745Z,52.60
2022-12-18T11:35:02.371Z,52.60
2022-12-18T11:37:30.093Z,52.60
2022-12-18T11:40:01.297Z,52.60
2022-12-18T11:42:36.293Z,52.70
2022-12-18T11:45:15.424Z,52.60
2022-12-18T11:47:46.769Z,52.70
2022-12-18T11:50:16.819Z,52.70
2022-12-18T11:52:43.616Z,52.60
2022-12-18T11:55:13.448Z,52.60
2022-12-18T11:57:47.062Z,52.50
2022-12-18T12:00:17.524Z,52.50
2022-12-18T12:03:07.955Z,52.50
2022-12-18T12:05:46.112Z,52.40
2022-12-18T12:08:22.014Z,52.40
2022-12-18T12:10:58.988Z,52.40
2022-12-18T12:13:38.728Z,52.40
2022-12-18T12:16:16.054Z,52.40
2022-12-18T12:18:57.253Z,52.30
2022-12-18T12:21:30.897Z,52.20
2022-12-18T12:24:05.582Z,52.20
2022-12-18T12:26:43.670Z,52.10
2022-12-18T12:29:32.201Z,52.00
2022-12-18T12:32:12.931Z,52.00
2022-12-18T12:34:48.824Z,51.90
2022-12-18T12:37:35.744Z,51.90
2022-12-18T12:40:15.333Z,51.80
2022-12-18T12:42:55.211Z,51.90
2022-12-18T12:45:28.366Z,51.90
2022-12-18T12:47:58.556Z,51.90
2022-12-18T12:50:27.355Z,52.50
2022-12-18T12:52:56.486Z,51.80
2022-12-18T12:55:25.759Z,51.80
2022-12-18T12:58:01.325Z,51.90
2022-12-18T13:00:37.102Z,51.90
2022-12-18T13:03:13.345Z,52.00
2022-12-18T13:05:49.268Z,52.00
2022-12-18T13:08:24.756Z,51.90
2022-12-18T13:10:55.027Z,52.00
2022-12-18T13:13:24.299Z,51.90
2022-12-18T13:16:05.772Z,52.00
2022-12-18T13:18:33.876Z,51.90
2022-12-18T13:21:15.453Z,52.00
2022-12-18T13:23:42.885Z,52.10
2022-12-18T13:26:29.998Z,52.20
2022-12-18T13:28:57.764Z,52.20
2022-12-18T13:32:09.282Z,52.30
2022-12-18T13:34:36.553Z,52.20
2022-12-18T13:37:41.292Z,52.30
2022-12-18T13:40:48.429Z,52.20
2022-12-18T13:43:25.503Z,52.20
2022-12-18T13:46:02.486Z,52.30
2022-12-18T13:48:32.995Z,52.20
2022-12-18T13:51:03.309Z,52.90
2022-12-18T13:53:37.269Z,52.10
2022-12-18T13:56:05.902Z,52.10
2022-12-18T13:58:32.837Z,52.00
2022-12-18T14:00:59.680Z,51.90
2022-12-18T14:03:28.931Z,51.90
2022-12-18T14:06:04.009Z,51.80
2022-12-18T14:08:38.268Z,51.80
2022-12-18T14:11:07.585Z,51.70
2022-12-18T14:13:37.711Z,51.60
2022-12-18T14:16:06.956Z,51.60
2022-12-18T14:18:42.925Z,51.50
2022-12-18T14:21:20.553Z,51.50
2022-12-18T14:23:48.743Z,51.40
2022-12-18T14:26:24.462Z,51.30
2022-12-18T14:28:51.328Z,51.20
2022-12-18T14:31:22.362Z,51.20
2022-12-18T14:33:50.588Z,51.10
2022-12-18T14:36:19.629Z,50.90
2022-12-18T14:38:51.836Z,50.80
2022-12-18T14:41:19.810Z,50.70
2022-12-18T14:43:48.585Z,50.70
2022-12-18T14:46:35.183Z,50.70
2022-12-18T14:49:04.209Z,50.70
2022-12-18T14:51:33.143Z,51.20
2022-12-18T14:54:03.006Z,50.60
2022-12-18T14:56:31.667Z,50.60
2022-12-18T14:59:00.200Z,50.50
2022-12-18T15:01:31.960Z,50.50
2022-12-18T15:04:00.524Z,50.50
2022-12-18T15:06:31.362Z,50.50
2022-12-18T15:08:58.568Z,50.60
2022-12-18T15:11:35.569Z,50.60
2022-12-18T15:14:23.827Z,50.60
2022-12-18T15:16:55.167Z,50.60
2022-12-18T15:19:23.842Z,50.60
2022-12-18T15:21:50.735Z,50.50
2022-12-18T15:24:21.266Z,50.50
2022-12-18T15:26:49.419Z,50.60
2022-12-18T15:29:24.029Z,50.60
2022-12-18T15:32:00.868Z,50.60
2022-12-18T15:34:28.718Z,50.50
2022-12-18T15:36:55.688Z,50.60
2022-12-18T15:39:25.325Z,50.60
2022-12-18T15:41:53.515Z,50.60
2022-12-18T15:44:24.196Z,50.50
2022-12-18T15:46:50.940Z,50.40
2022-12-18T15:49:17.671Z,50.40
2022-12-18T15:51:44.633Z,50.40
2022-12-18T15:54:15.588Z,51.00
2022-12-18T15:56:42.374Z,50.30
2022-12-18T15:59:13.653Z,50.40
2022-12-18T16:01:42.825Z,50.30
2022-12-18T16:04:11.557Z,50.30
2022-12-18T16:07:05.422Z,50.40
2022-12-18T16:09:26.460Z,50.30
2022-12-18T16:11:53.442Z,50.30
2022-12-18T16:14:23.612Z,50.40
2022-12-18T16:16:52.867Z,50.30
2022-12-18T16:19:19.786Z,50.20
2022-12-18T16:21:47.357Z,50.30
2022-12-18T16:24:16.641Z,50.30
2022-12-18T16:26:44.160Z,50.30
2022-12-18T16:29:11.522Z,50.20
2022-12-18T16:31:40.261Z,50.30
2022-12-18T16:34:14.682Z,50.20
2022-12-18T16:36:41.494Z,50.30
2022-12-18T16:39:08.223Z,50.90
2022-12-18T16:41:35.050Z,50.30
2022-12-18T16:44:01.905Z,50.30
2022-12-18T16:46:28.665Z,50.30
2022-12-18T16:48:58.133Z,50.30
2022-12-18T16:51:24.902Z,50.30
2022-12-18T16:53:51.724Z,50.40
2022-12-18T16:56:18.478Z,50.30
2022-12-18T16:58:50.023Z,50.30
2022-12-18T17:01:16.922Z,50.30
2022-12-18T17:03:44.431Z,50.30
2022-12-18T17:06:14.341Z,50.30
2022-12-18T17:08:41.910Z,50.30
2022-12-18T17:11:09.010Z,50.30
2022-12-18T17:13:35.868Z,50.30
2022-12-18T17:16:03.456Z,50.30
2022-12-18T17:18:30.329Z,50.30
2022-12-18T17:20:59.686Z,50.30
2022-12-18T17:23:28.351Z,50.30
2022-12-18T17:25:55.489Z,50.20
2022-12-18T17:28:22.288Z,50.30
2022-12-18T17:30:49.094Z,50.20
2022-12-18T17:33:15.847Z,50.20
2022-12-18T17:35:42.571Z,50.30
2022-12-18T17:38:09.426Z,50.30
2022-12-18T17:40:41.815Z,50.30
2022-12-18T17:43:11.747Z,50.30
2022-12-18T17:45:39.083Z,50.40
2022-12-18T17:48:06.755Z,50.40
2022-12-18T17:50:35.243Z,50.40
2022-12-18T17:53:02.432Z,50.40
2022-12-18T17:55:29.495Z,50.40
2022-12-18T17:57:57.632Z,50.40
2022-12-18T18:00:24.409Z,50.40
2022-12-18T18:02:51.651Z,51.10
2022-12-18T18:05:18.609Z,50.40
2022-12-18T18:07:45.472Z,50.50
2022-12-18T18:10:12.418Z,50.50
2022-12-18T18:12:39.185Z,50.40
2022-12-18T18:15:08.671Z,50.30
2022-12-18T18:17:35.594Z,50.40
2022-12-18T18:20:02.390Z,50.40
2022-12-18T18:22:29.102Z,50.30
2022-12-18T18:24:56.066Z,50.40
2022-12-18T18:27:23.043Z,50.40
2022-12-18T18:29:49.809Z,50.40
2022-12-18T18:32:18.037Z,50.50
2022-12-18T18:34:44.759Z,50.50
2022-12-18T18:37:11.503Z,50.50
2022-12-18T18:39:38.567Z,50.50
2022-12-18T18:42:05.864Z,50.50
2022-12-18T18:44:32.602Z,50.50
2022-12-18T18:46:59.412Z,50.60
2022-12-18T18:49:28.156Z,50.60
2022-12-18T18:51:55.528Z,50.60
2022-12-18T18:54:22.321Z,50.50
2022-12-18T18:59:36.332Z,50.60
2022-12-18T19:02:04.610Z,51.20
2022-12-18T19:04:33.959Z,50.60
2022-12-18T19:07:00.909Z,51.30
2022-12-18T19:09:28.012Z,50.60
2022-12-18T19:11:55.572Z,50.60
2022-12-18T19:14:22.334Z,50.60
2022-12-18T19:16:49.130Z,50.60
2022-12-18T19:19:17.027Z,50.60
2022-12-18T19:22:01.978Z,50.60
2022-12-18T19:24:28.944Z,50.60
2022-12-18T19:26:58.069Z,50.60
2022-12-18T19:29:25.155Z,50.60
2022-12-18T19:31:52.152Z,50.60
2022-12-18T19:34:19.053Z,50.60
2022-12-18T19:36:49.326Z,50.70
2022-12-18T19:45:27.878Z,50.70
2022-12-18T19:47:55.381Z,50.60
2022-12-18T19:50:26.107Z,50.50
2022-12-18T19:52:54.244Z,50.40
2022-12-18T19:55:20.979Z,50.60
2022-12-18T19:57:47.877Z,50.60
2022-12-18T20:00:18.661Z,50.50
2022-12-18T20:02:45.901Z,50.50
2022-12-18T20:05:13.371Z,50.50
2022-12-18T20:07:40.149Z,50.50
2022-12-18T20:10:13.549Z,50.50
2022-12-18T20:12:41.823Z,50.50
2022-12-18T20:15:10.026Z,50.50
2022-12-18T20:17:36.819Z,50.50
2022-12-18T20:20:04.042Z,50.40
2022-12-18T20:22:30.969Z,50.50
2022-12-18T20:24:57.749Z,50.60
2022-12-18T20:27:25.847Z,50.40
2022-12-18T20:29:52.550Z,50.40
2022-12-18T20:32:19.373Z,50.40
2022-12-18T20:34:46.146Z,50.30
2022-12-18T20:37:13.035Z,50.40
2022-12-18T20:39:39.920Z,50.30
2022-12-18T20:42:07.345Z,50.20
2022-12-18T20:44:35.586Z,50.20
2022-12-18T20:47:03.372Z,50.20
2022-12-18T20:49:35.563Z,50.30
2022-12-18T20:52:04.587Z,50.30
2022-12-18T20:54:31.329Z,50.20
2022-12-18T20:56:58.092Z,50.30
2022-12-18T20:59:24.975Z,50.30
2022-12-18T21:01:53.512Z,50.30
2022-12-18T21:04:20.830Z,50.30
2022-12-18T21:06:53.081Z,50.40
2022-12-18T21:09:22.834Z,50.40
2022-12-18T21:11:50.163Z,50.40
2022-12-18T21:14:19.636Z,50.30
2022-12-18T21:16:46.939Z,50.30
2022-12-18T21:19:18.666Z,50.90
2022-12-18T21:21:46.038Z,50.30
2022-12-18T21:24:13.435Z,50.40
2022-12-18T21:26:45.811Z,50.40
2022-12-18T21:29:15.144Z,50.40
2022-12-18T21:31:43.264Z,50.40
2022-12-18T21:34:14.085Z,50.40
2022-12-18T21:36:42.238Z,50.40
2022-12-18T21:39:09.401Z,50.40
2022-12-18T21:41:41.709Z,50.40
2022-12-18T21:44:11.285Z,50.30
2022-12-18T21:46:39.941Z,50.40
2022-12-18T21:49:07.852Z,50.40
2022-12-18T21:51:35.861Z,50.50
2022-12-18T21:54:04.568Z,50.50
2022-12-18T21:56:45.144Z,50.60
2022-12-18T21:59:13.234Z,50.50
2022-12-18T22:01:40.223Z,50.60
2022-12-18T22:04:07.141Z,50.50
2022-12-18T22:06:33.897Z,50.50
2022-12-18T22:09:00.606Z,50.50
2022-12-18T22:11:28.761Z,50.60
2022-12-18T22:13:55.483Z,50.60
2022-12-18T22:16:23.057Z,50.60
2022-12-18T22:18:49.897Z,50.60
2022-12-18T22:21:28.734Z,50.60
2022-12-18T22:23:57.207Z,50.70
2022-12-18T22:26:25.306Z,50.60
2022-12-18T22:28:53.764Z,50.60
2022-12-18T22:31:20.573Z,50.60
2022-12-18T22:33:47.289Z,50.60
2022-12-18T22:36:14.087Z,50.60
2022-12-18T22:38:42.855Z,50.60
2022-12-18T22:41:09.564Z,50.50
2022-12-18T22:43:36.292Z,50.50
2022-12-18T22:46:04.529Z,50.60
2022-12-18T22:48:31.311Z,50.70
2022-12-18T22:50:59.640Z,50.60
2022-12-18T22:53:26.562Z,50.70
2022-12-18T22:56:00.386Z,50.80
2022-12-18T22:58:27.136Z,50.70
2022-12-18T23:00:53.874Z,50.80
2022-12-18T23:03:22.269Z,50.70
2022-12-18T23:05:49.103Z,50.70
2022-12-18T23:08:17.075Z,50.70
2022-12-18T23:10:43.859Z,51.40
2022-12-18T23:13:10.654Z,50.70
2022-12-18T23:15:41.319Z,50.80
2022-12-18T23:18:08.021Z,50.80
2022-12-18T23:20:37.175Z,50.60
2022-12-18T23:23:05.247Z,50.60
2022-12-18T23:25:32.082Z,50.60
2022-12-18T23:27:58.794Z,50.70
2022-12-18T23:30:25.534Z,50.60
2022-12-18T23:32:52.281Z,50.70
2022-12-18T23:35:19.047Z,50.70
2022-12-18T23:38:03.702Z,50.90
2022-12-18T23:40:30.459Z,50.90
2022-12-18T23:42:58.339Z,51.60
2022-12-18T23:45:25.115Z,51.00
2022-12-18T23:47:51.818Z,50.90
2022-12-18T23:50:18.597Z,50.90
2022-12-18T23:52:45.363Z,51.00
2022-12-18T23:55:13.474Z,51.00
2022-12-18T23:57:40.174Z,51.00
